RJAZ(METAR)
08/23 17:00
RJAZ 230800Z 25008KT CAVOK 25/24 Q1007 RMK A2976=
戻る
トップページへ戻る
IMOC Co,.Ltd.